Time;durP1;ratioP1;P1;durP2;ratioP2;P2;SDS_P1;SDS_P2;PMS_P1;PMS_P2;Temp;Humidity;BMP_temperature;BMP_pressure;BME280_temperature;BME280_humidity;BME280_pressure;Samples;Min_cycle;Max_cycle;Signal;HPM_P1;HPM_P2
2024/04/10 00:02:08;;;;;;;8.20;2.40;;;10.20;99.90;;;;;;5443526;26;20238;-85
2024/04/10 00:04:37;;;;;;;3.50;2.37;;;10.20;99.90;;;;;;5446858;26;20756;-84
2024/04/10 00:07:06;;;;;;;6.03;2.70;;;10.20;99.90;;;;;;5425316;26;20247;-85
2024/04/10 00:09:32;;;;;;;7.23;2.40;;;10.20;99.90;;;;;;5402355;26;20601;-84
2024/04/10 00:12:00;;;;;;;7.47;2.63;;;10.20;99.90;;;;;;5399513;26;20247;-85
2024/04/10 00:14:26;;;;;;;6.23;2.43;;;10.20;99.90;;;;;;5397121;26;21649;-85
2024/04/10 00:16:55;;;;;;;3.93;2.30;;;10.20;99.90;;;;;;5397761;26;20780;-86
2024/04/10 00:19:21;;;;;;;7.30;2.33;;;10.20;99.90;;;;;;5404748;26;20246;-84
2024/04/10 00:21:55;;;;;;;4.67;2.27;;;10.30;99.90;;;;;;5400412;26;20571;-84
2024/04/10 00:24:21;;;;;;;5.47;2.17;;;10.40;99.90;;;;;;5400684;26;20287;-85
2024/04/10 00:26:51;;;;;;;7.30;1.70;;;10.40;99.90;;;;;;5404251;26;20255;-85
2024/04/10 00:29:17;;;;;;;8.07;2.47;;;10.40;99.90;;;;;;5401700;26;20244;-86
2024/04/10 00:31:47;;;;;;;7.47;2.47;;;10.40;99.90;;;;;;5410589;26;20251;-85
2024/04/10 00:34:13;;;;;;;6.73;2.73;;;10.50;99.90;;;;;;5401181;26;20247;-84
2024/04/10 00:36:41;;;;;;;5.57;2.50;;;10.40;99.90;;;;;;5409331;26;20277;-84
2024/04/10 00:39:10;;;;;;;6.53;2.30;;;10.40;99.90;;;;;;5410270;26;20278;-85
2024/04/10 00:41:38;;;;;;;7.30;2.40;;;10.40;99.90;;;;;;5406649;26;20339;-85
2024/04/10 00:44:04;;;;;;;4.27;1.97;;;10.40;99.90;;;;;;5395286;26;20245;-85
2024/04/10 00:46:35;;;;;;;7.03;2.10;;;10.40;99.90;;;;;;5400011;26;20690;-85
2024/04/10 00:49:02;;;;;;;6.20;2.10;;;10.40;99.90;;;;;;5393134;26;20251;-84
2024/04/10 00:51:31;;;;;;;5.80;2.00;;;10.40;99.90;;;;;;5416131;26;20612;-84
2024/04/10 00:53:58;;;;;;;4.53;2.00;;;10.50;99.90;;;;;;5417019;26;20298;-84
2024/04/10 00:56:29;;;;;;;5.00;1.83;;;10.50;99.90;;;;;;5402507;26;20523;-83
2024/04/10 00:58:58;;;;;;;5.17;1.60;;;10.40;99.90;;;;;;5402594;26;20240;-83
2024/04/10 01:01:26;;;;;;;6.90;1.50;;;10.40;99.90;;;;;;5408721;26;20613;-84
2024/04/10 01:03:52;;;;;;;3.27;1.60;;;10.30;99.90;;;;;;5398878;26;20243;-83
2024/04/10 01:06:21;;;;;;;2.50;1.33;;;10.30;99.90;;;;;;5410092;26;20640;-85
2024/04/10 01:08:46;;;;;;;4.83;1.50;;;10.30;99.90;;;;;;5409277;26;20247;-83
2024/04/10 01:11:15;;;;;;;4.07;1.70;;;10.30;99.90;;;;;;5410438;26;20274;-85
2024/04/10 01:13:46;;;;;;;3.93;1.33;;;10.30;99.90;;;;;;5403227;26;20239;-84
2024/04/10 01:16:12;;;;;;;4.03;1.30;;;10.20;99.90;;;;;;5404553;26;20298;-84
2024/04/10 01:18:40;;;;;;;7.10;1.50;;;10.10;99.90;;;;;;5409052;26;20243;-84
2024/04/10 01:21:06;;;;;;;3.30;1.20;;;10.00;99.90;;;;;;5401551;26;20244;-86
2024/04/10 01:23:37;;;;;;;4.87;1.27;;;9.90;99.90;;;;;;5414501;26;20308;-87
2024/04/10 01:26:03;;;;;;;5.00;1.43;;;9.80;99.90;;;;;;5411044;26;20270;-85
2024/04/10 01:28:32;;;;;;;5.90;1.03;;;9.80;99.90;;;;;;5409739;26;20647;-86
2024/04/10 01:30:58;;;;;;;3.43;1.10;;;9.80;99.90;;;;;;5407629;26;20243;-84
2024/04/10 01:33:27;;;;;;;4.03;1.30;;;9.80;99.90;;;;;;5411375;26;20239;-85
2024/04/10 01:35:53;;;;;;;1.83;0.80;;;9.80;99.90;;;;;;5412967;26;20291;-85
2024/04/10 01:38:23;;;;;;;4.30;0.90;;;9.80;99.90;;;;;;5406730;26;20243;-86
2024/04/10 01:40:51;;;;;;;4.43;0.87;;;9.80;99.90;;;;;;5402940;26;20235;-86
2024/04/10 01:43:20;;;;;;;1.50;1.00;;;9.80;99.90;;;;;;5413451;26;20355;-86
2024/04/10 01:45:46;;;;;;;5.10;1.23;;;9.90;99.90;;;;;;5407098;26;20373;-85
2024/04/10 01:48:15;;;;;;;3.73;0.97;;;9.80;99.90;;;;;;5407233;26;20243;-84
2024/04/10 01:50:42;;;;;;;2.83;1.20;;;9.90;99.90;;;;;;5401052;26;20761;-84
2024/04/10 01:53:11;;;;;;;2.97;1.23;;;9.90;99.90;;;;;;5405953;26;20855;-86
2024/04/10 01:55:37;;;;;;;3.83;1.43;;;10.00;99.90;;;;;;5414668;26;20309;-85
2024/04/10 01:58:08;;;;;;;3.70;1.00;;;10.00;99.90;;;;;;5413164;26;20243;-86
2024/04/10 02:00:37;;;;;;;3.63;1.17;;;9.90;99.90;;;;;;5408596;26;20239;-85
2024/04/10 02:03:04;;;;;;;7.33;1.27;;;9.90;99.90;;;;;;5405091;26;20302;-85
2024/04/10 02:05:32;;;;;;;4.00;1.03;;;9.80;99.90;;;;;;5412939;26;20244;-86
2024/04/10 02:07:58;;;;;;;6.57;0.87;;;9.80;99.90;;;;;;5406829;26;20247;-85
2024/04/10 02:10:27;;;;;;;2.67;0.90;;;9.70;99.90;;;;;;5406539;26;20289;-84
2024/04/10 02:12:53;;;;;;;7.83;1.33;;;9.70;99.90;;;;;;5407666;26;20340;-84
2024/04/10 02:15:24;;;;;;;4.60;1.30;;;9.70;99.90;;;;;;5398942;26;20627;-84
2024/04/10 02:17:50;;;;;;;5.93;1.03;;;9.70;99.90;;;;;;5405752;26;20286;-84
2024/04/10 02:20:21;;;;;;;5.23;0.93;;;9.80;99.90;;;;;;5401622;26;20239;-84
2024/04/10 02:22:47;;;;;;;4.57;1.37;;;9.80;99.90;;;;;;5402504;26;20248;-84
2024/04/10 02:25:16;;;;;;;2.20;1.30;;;9.80;99.90;;;;;;5400566;26;20240;-84
2024/04/10 02:27:42;;;;;;;7.50;1.20;;;9.90;99.90;;;;;;5405879;26;20238;-84
2024/04/10 02:30:11;;;;;;;3.23;1.10;;;9.90;99.90;;;;;;5402636;26;20243;-83
2024/04/10 02:32:39;;;;;;;4.40;1.10;;;9.90;99.90;;;;;;5403497;26;20737;-84
2024/04/10 02:35:08;;;;;;;5.03;1.10;;;9.90;99.90;;;;;;5406561;26;20696;-84
2024/04/10 02:37:34;;;;;;;2.50;0.90;;;9.90;99.90;;;;;;5409711;26;20263;-84
2024/04/10 02:40:03;;;;;;;3.97;0.90;;;9.90;99.90;;;;;;5407626;26;20244;-85
2024/04/10 02:42:29;;;;;;;2.77;1.20;;;10.00;99.90;;;;;;5412551;26;20244;-85
2024/04/10 02:44:58;;;;;;;4.50;1.30;;;9.90;99.90;;;;;;5413394;26;20796;-85
2024/04/10 02:47:24;;;;;;;3.20;1.47;;;10.00;99.90;;;;;;5412220;26;20239;-85
2024/04/10 02:49:55;;;;;;;8.27;1.40;;;10.00;99.90;;;;;;5411419;26;20315;-85
2024/04/10 02:52:21;;;;;;;1.77;1.07;;;10.00;99.90;;;;;;5407473;26;20243;-85
2024/04/10 02:54:50;;;;;;;2.80;1.17;;;10.00;99.90;;;;;;5411775;26;20729;-84
2024/04/10 02:57:16;;;;;;;3.03;0.93;;;10.00;99.90;;;;;;5409926;26;20297;-85
2024/04/10 02:59:44;;;;;;;4.70;1.30;;;10.00;99.90;;;;;;5411510;26;20307;-86
2024/04/10 03:02:10;;;;;;;5.47;1.13;;;10.00;99.90;;;;;;5411528;26;20247;-84
2024/04/10 03:04:39;;;;;;;4.90;1.40;;;10.00;99.90;;;;;;5408520;26;20247;-84
2024/04/10 03:07:09;;;;;;;3.10;1.00;;;10.00;99.90;;;;;;5427719;26;20293;-85
2024/04/10 03:09:38;;;;;;;2.50;1.20;;;10.00;99.90;;;;;;5431490;26;20405;-85
2024/04/10 03:12:05;;;;;;;4.33;1.53;;;10.10;99.90;;;;;;5437214;26;20239;-85
2024/04/10 03:14:37;;;;;;;5.83;1.27;;;10.10;99.90;;;;;;5435966;26;20336;-85
2024/04/10 03:17:02;;;;;;;3.10;1.13;;;10.10;99.90;;;;;;5442545;26;20293;-85
2024/04/10 03:19:32;;;;;;;3.57;1.00;;;10.10;99.90;;;;;;5440286;26;20235;-85
2024/04/10 03:21:59;;;;;;;3.80;0.90;;;10.10;99.90;;;;;;5429971;26;20242;-85
2024/04/10 03:24:31;;;;;;;6.03;1.00;;;10.10;99.90;;;;;;5439794;26;20245;-84
2024/04/10 03:26:59;;;;;;;5.03;1.00;;;10.10;99.90;;;;;;5438866;26;20234;-84
2024/04/10 03:29:29;;;;;;;2.57;0.97;;;10.10;99.90;;;;;;5446855;26;20238;-85
2024/04/10 03:31:56;;;;;;;3.57;1.20;;;10.10;99.90;;;;;;5437584;26;20242;-83
2024/04/10 03:34:25;;;;;;;2.80;1.00;;;10.10;99.90;;;;;;5446825;26;20592;-84
2024/04/10 03:36:53;;;;;;;5.30;1.03;;;10.10;99.90;;;;;;5443548;26;20936;-84
2024/04/10 03:39:23;;;;;;;3.20;1.10;;;10.10;99.90;;;;;;5444181;26;20833;-84
2024/04/10 03:41:53;;;;;;;8.50;1.30;;;10.10;99.90;;;;;;5436559;26;20277;-84
2024/04/10 03:44:22;;;;;;;6.63;1.37;;;10.00;99.90;;;;;;5444896;26;20238;-83
2024/04/10 03:46:56;;;;;;;1.57;0.70;;;10.00;99.90;;;;;;5444668;26;20274;-84
2024/04/10 03:49:26;;;;;;;5.80;0.80;;;10.00;99.90;;;;;;5436887;26;20236;-84
2024/04/10 03:51:59;;;;;;;1.40;0.77;;;10.00;99.90;;;;;;5437999;26;20238;-84
2024/04/10 03:54:25;;;;;;;2.57;0.70;;;9.90;99.90;;;;;;5444180;26;20242;-83
2024/04/10 03:56:58;;;;;;;4.27;0.77;;;9.80;99.90;;;;;;5445347;26;20247;-84
2024/04/10 03:59:25;;;;;;;3.07;1.00;;;9.80;99.90;;;;;;5442097;26;20364;-84
2024/04/10 04:01:59;;;;;;;4.17;0.93;;;9.70;99.90;;;;;;5438644;26;20299;-85
2024/04/10 04:04:26;;;;;;;2.80;0.70;;;9.70;99.90;;;;;;5438371;26;20284;-85
2024/04/10 04:06:56;;;;;;;3.03;0.97;;;9.80;99.90;;;;;;5438150;26;20243;-85
2024/04/10 04:09:24;;;;;;;1.83;0.70;;;9.70;99.90;;;;;;5444654;26;20586;-85
2024/04/10 04:11:53;;;;;;;2.47;0.87;;;9.70;99.90;;;;;;5432580;26;20404;-83
2024/04/10 04:14:23;;;;;;;2.07;0.80;;;9.70;99.90;;;;;;5446816;26;20238;-85
2024/04/10 04:16:52;;;;;;;1.60;1.00;;;9.70;99.90;;;;;;5439460;26;20285;-86
2024/04/10 04:19:17;;;;;;;2.30;0.83;;;9.70;99.90;;;;;;5446521;26;20304;-86
2024/04/10 04:21:46;;;;;;;1.83;0.70;;;9.70;99.90;;;;;;5434576;26;20325;-85
2024/04/10 04:24:12;;;;;;;2.70;0.70;;;9.70;99.90;;;;;;5448984;26;20254;-86
2024/04/10 04:26:42;;;;;;;3.03;0.87;;;9.60;99.90;;;;;;5442886;26;20242;-86
2024/04/10 04:29:07;;;;;;;4.57;0.60;;;9.60;99.90;;;;;;5445514;26;20243;-86
2024/04/10 04:31:39;;;;;;;2.10;0.50;;;9.60;99.90;;;;;;5442791;26;20334;-84
2024/04/10 04:34:09;;;;;;;4.50;0.80;;;9.60;99.90;;;;;;5445335;26;20285;-84
2024/04/10 04:36:39;;;;;;;3.70;0.67;;;9.60;99.90;;;;;;5436410;26;20254;-84
2024/04/10 04:39:07;;;;;;;2.23;0.80;;;9.60;99.90;;;;;;5437479;26;20235;-84
2024/04/10 04:41:36;;;;;;;2.43;1.20;;;9.60;99.90;;;;;;5426976;26;20352;-84
2024/04/10 04:44:02;;;;;;;5.03;0.77;;;9.60;99.90;;;;;;5439138;26;21057;-84
2024/04/10 04:46:31;;;;;;;2.57;1.03;;;9.60;99.90;;;;;;5431920;26;20259;-85
2024/04/10 04:49:00;;;;;;;3.10;0.57;;;9.60;99.90;;;;;;5438443;26;20238;-86
2024/04/10 04:51:28;;;;;;;4.10;0.60;;;9.60;99.90;;;;;;5442678;26;20276;-86
2024/04/10 04:53:54;;;;;;;3.37;0.93;;;9.60;99.90;;;;;;5448546;26;20685;-86
2024/04/10 04:56:23;;;;;;;2.30;0.70;;;9.60;99.90;;;;;;5449631;26;20404;-85
2024/04/10 04:58:48;;;;;;;2.63;0.80;;;9.60;99.90;;;;;;5446251;26;20243;-86
2024/04/10 05:01:21;;;;;;;0.90;0.63;;;9.60;99.90;;;;;;5445342;26;20289;-85
2024/04/10 05:06:51;;;;;;;5.87;1.00;;;9.60;99.90;;;;;;5330294;26;20293;-86
2024/04/10 05:09:20;;;;;;;2.33;0.70;;;9.60;99.90;;;;;;5335025;26;20249;-85
2024/04/10 05:11:46;;;;;;;4.27;0.60;;;9.50;99.90;;;;;;5381436;26;20249;-87
2024/04/10 05:14:15;;;;;;;2.13;0.70;;;9.60;99.90;;;;;;5436037;26;20288;-86
2024/04/10 05:16:41;;;;;;;2.83;0.77;;;9.60;99.90;;;;;;5442620;26;20791;-87
2024/04/10 05:19:09;;;;;;;3.47;0.70;;;9.60;99.90;;;;;;5447106;26;20245;-86
2024/04/10 05:21:35;;;;;;;0.97;0.70;;;9.60;99.90;;;;;;5443450;26;20289;-85
2024/04/10 05:24:07;;;;;;;2.13;0.80;;;9.60;99.90;;;;;;5442371;26;20243;-86
2024/04/10 05:26:33;;;;;;;3.87;0.90;;;9.50;99.90;;;;;;5436555;26;20255;-85
2024/04/10 05:29:02;;;;;;;4.87;0.80;;;9.50;99.90;;;;;;5441887;26;20289;-86
2024/04/10 05:31:28;;;;;;;2.47;0.80;;;9.50;99.90;;;;;;5432205;26;20259;-86
2024/04/10 05:33:56;;;;;;;2.97;0.67;;;9.50;99.90;;;;;;5434558;26;20291;-86
2024/04/10 05:36:22;;;;;;;2.37;0.83;;;9.40;99.90;;;;;;5439462;26;20254;-85
2024/04/10 05:38:52;;;;;;;3.03;0.90;;;9.30;99.90;;;;;;5440303;26;20434;-85
2024/04/10 05:41:21;;;;;;;1.03;0.57;;;9.30;99.90;;;;;;5435936;26;21259;-87
2024/04/10 05:43:50;;;;;;;3.70;0.80;;;9.30;99.90;;;;;;5444078;26;20267;-85
2024/04/10 05:46:15;;;;;;;3.83;0.90;;;9.30;99.90;;;;;;5441870;26;20362;-85
2024/04/10 05:48:44;;;;;;;5.17;0.90;;;9.40;99.90;;;;;;5432298;26;20250;-86
2024/04/10 05:51:10;;;;;;;2.43;1.00;;;9.40;99.90;;;;;;5445030;26;20258;-85
2024/04/10 05:53:38;;;;;;;3.93;1.03;;;9.50;99.90;;;;;;5444665;26;20649;-85
2024/04/10 05:56:04;;;;;;;2.10;0.90;;;9.50;99.90;;;;;;5446860;26;20251;-87
2024/04/10 05:58:38;;;;;;;8.17;1.27;;;9.60;99.90;;;;;;5441838;26;20705;-85
2024/04/10 06:01:07;;;;;;;2.83;0.80;;;9.60;99.90;;;;;;5436727;26;20235;-86
2024/04/10 06:03:36;;;;;;;3.73;0.93;;;9.60;99.90;;;;;;5442749;26;20583;-85
2024/04/10 06:06:09;;;;;;;3.13;1.13;;;9.70;99.90;;;;;;5441893;26;20242;-86
2024/04/10 06:08:37;;;;;;;5.90;1.13;;;9.70;99.90;;;;;;5411513;26;20247;-87
2024/04/10 06:11:03;;;;;;;4.30;1.40;;;9.70;99.90;;;;;;5415945;26;20849;-85
2024/04/10 06:13:32;;;;;;;4.30;0.90;;;9.70;99.90;;;;;;5411952;26;20243;-87
2024/04/10 06:16:02;;;;;;;3.73;1.10;;;9.70;99.90;;;;;;5410350;26;20251;-87
2024/04/10 06:18:30;;;;;;;2.83;1.20;;;9.80;99.90;;;;;;5419075;26;20251;-86
2024/04/10 06:20:57;;;;;;;4.53;1.20;;;9.80;99.90;;;;;;5417636;26;20239;-87
2024/04/10 06:23:26;;;;;;;4.73;1.13;;;9.80;99.90;;;;;;5410162;26;20644;-87
2024/04/10 06:25:52;;;;;;;6.47;1.20;;;9.70;99.90;;;;;;5412988;26;20350;-86
2024/04/10 06:28:21;;;;;;;4.47;1.20;;;9.80;99.90;;;;;;5408362;26;20575;-87
2024/04/10 06:30:47;;;;;;;6.60;1.27;;;9.80;99.90;;;;;;5406394;26;20239;-86
2024/04/10 06:33:19;;;;;;;4.60;0.97;;;9.90;99.90;;;;;;5410592;26;20285;-85
2024/04/10 06:35:44;;;;;;;3.67;1.17;;;10.00;99.90;;;;;;5404590;26;20252;-87
2024/04/10 06:38:13;;;;;;;3.50;1.00;;;10.10;99.90;;;;;;5410930;26;20389;-85
2024/04/10 06:40:39;;;;;;;2.90;0.90;;;10.10;99.90;;;;;;5408095;26;20281;-84
2024/04/10 06:43:07;;;;;;;4.57;1.27;;;10.20;99.90;;;;;;5410828;26;20247;-84
2024/04/10 06:45:33;;;;;;;3.80;1.00;;;10.20;99.90;;;;;;5414204;26;20738;-86
2024/04/10 06:48:02;;;;;;;3.80;1.20;;;10.40;99.90;;;;;;5423173;26;20239;-86
2024/04/10 06:50:30;;;;;;;4.27;1.20;;;10.50;99.90;;;;;;5422996;26;20251;-86
2024/04/10 06:53:00;;;;;;;2.73;1.00;;;10.60;99.90;;;;;;5418997;26;20362;-85
2024/04/10 06:55:26;;;;;;;5.43;1.13;;;10.60;99.90;;;;;;5410932;26;20298;-85
2024/04/10 06:57:54;;;;;;;5.70;1.23;;;10.60;99.90;;;;;;5418586;26;20251;-85
2024/04/10 07:00:21;;;;;;;5.17;0.90;;;10.60;99.90;;;;;;5424259;26;20254;-85
2024/04/10 07:02:49;;;;;;;1.87;0.97;;;10.60;99.90;;;;;;5415243;26;20255;-86
2024/04/10 07:05:15;;;;;;;2.87;1.00;;;10.70;99.90;;;;;;5419305;26;20239;-87
2024/04/10 07:07:46;;;;;;;4.20;1.53;;;10.70;99.90;;;;;;5406057;26;20243;-87
2024/04/10 07:10:12;;;;;;;5.67;1.43;;;10.60;99.90;;;;;;5398762;26;20290;-86
2024/04/10 07:12:41;;;;;;;6.10;1.10;;;10.50;99.90;;;;;;5408584;26;20251;-85
2024/04/10 07:15:07;;;;;;;5.63;1.40;;;10.50;99.90;;;;;;5408092;26;20294;-85
2024/04/10 07:17:36;;;;;;;5.73;1.43;;;10.60;99.90;;;;;;5404195;26;20282;-85
2024/04/10 07:20:02;;;;;;;8.43;1.87;;;10.50;99.90;;;;;;5409643;26;20603;-85
2024/04/10 07:22:31;;;;;;;4.03;1.40;;;10.60;99.90;;;;;;5403776;26;20330;-87
2024/04/10 07:24:59;;;;;;;5.70;1.90;;;10.70;99.90;;;;;;5405247;26;20289;-87
2024/04/10 07:27:27;;;;;;;5.03;1.33;;;10.90;99.90;;;;;;5401939;26;20247;-87
2024/04/10 07:29:56;;;;;;;6.37;1.60;;;11.00;99.90;;;;;;5284331;26;20304;-85
2024/04/10 07:32:28;;;;;;;7.57;1.70;;;11.00;99.90;;;;;;5304305;27;20254;-89
2024/04/10 07:34:55;;;;;;;4.33;1.70;;;11.00;99.90;;;;;;5306979;26;20619;-90
2024/04/10 07:37:23;;;;;;;4.13;1.37;;;11.00;99.90;;;;;;5286503;27;20336;-88
2024/04/10 07:39:49;;;;;;;6.80;1.50;;;11.00;99.90;;;;;;5296394;26;20766;-88
2024/04/10 07:42:23;;;;;;;3.93;1.17;;;11.00;99.90;;;;;;5307053;26;20242;-88
2024/04/10 07:44:51;;;;;;;5.83;1.63;;;11.00;99.90;;;;;;5289240;26;20730;-87
2024/04/10 07:47:20;;;;;;;5.90;1.33;;;11.10;99.90;;;;;;5306736;27;20700;-90
2024/04/10 07:49:46;;;;;;;3.03;1.13;;;11.30;99.90;;;;;;5298504;26;20306;-89
2024/04/10 07:52:14;;;;;;;4.77;1.43;;;11.30;99.90;;;;;;5293021;27;20247;-89
2024/04/10 07:54:40;;;;;;;2.70;0.90;;;11.40;99.90;;;;;;5282775;27;20239;-88
2024/04/10 07:57:09;;;;;;;5.27;1.77;;;11.50;99.90;;;;;;5300570;26;20314;-90
2024/04/10 07:59:37;;;;;;;7.63;1.33;;;11.50;99.90;;;;;;5295725;26;20599;-88
2024/04/10 08:02:06;;;;;;;5.60;1.37;;;11.50;99.90;;;;;;5305794;27;20239;-90
2024/04/10 08:04:35;;;;;;;5.90;1.43;;;11.70;99.90;;;;;;5293561;27;20239;-89
2024/04/10 08:07:03;;;;;;;3.47;1.57;;;11.90;99.90;;;;;;5329548;26;20265;-89
2024/04/10 08:09:29;;;;;;;7.97;1.30;;;11.90;99.90;;;;;;5370293;26;20249;-90
2024/04/10 08:11:58;;;;;;;4.83;1.27;;;11.90;99.90;;;;;;5372459;26;20248;-90
2024/04/10 08:14:24;;;;;;;2.87;1.23;;;11.80;99.90;;;;;;5362870;26;20286;-90
2024/04/10 08:16:55;;;;;;;3.30;1.30;;;11.80;99.90;;;;;;5373069;26;20252;-89
2024/04/10 08:19:21;;;;;;;2.80;1.10;;;11.90;99.90;;;;;;5374379;26;20240;-88
2024/04/10 08:21:51;;;;;;;2.90;1.33;;;11.90;99.90;;;;;;5366589;26;20241;-88
2024/04/10 08:24:17;;;;;;;5.73;1.87;;;11.90;99.90;;;;;;5365541;26;20264;-88
2024/04/10 08:26:46;;;;;;;5.83;1.40;;;11.90;99.90;;;;;;5373663;26;20345;-88
2024/04/10 08:29:12;;;;;;;3.40;1.60;;;11.90;99.90;;;;;;5353503;26;20310;-87
2024/04/10 08:31:40;;;;;;;8.10;1.67;;;11.90;99.90;;;;;;5378351;26;20290;-89
2024/04/10 08:34:10;;;;;;;5.20;1.30;;;12.10;99.90;;;;;;5370925;26;20817;-88
2024/04/10 08:36:39;;;;;;;4.07;1.57;;;12.10;99.90;;;;;;5371701;26;20990;-88
2024/04/10 08:39:05;;;;;;;6.63;1.63;;;12.00;99.90;;;;;;5390206;26;20536;-88
2024/04/10 08:41:36;;;;;;;4.67;1.80;;;12.20;99.90;;;;;;5379036;26;20315;-88
2024/04/10 08:44:03;;;;;;;4.50;1.80;;;12.40;99.90;;;;;;5357324;26;20253;-90
2024/04/10 08:46:34;;;;;;;7.20;1.83;;;12.60;99.90;;;;;;5365205;26;20256;-87
2024/04/10 08:49:02;;;;;;;8.80;1.80;;;12.60;99.90;;;;;;5367054;26;20245;-87
2024/04/10 08:51:35;;;;;;;6.43;1.70;;;12.50;99.90;;;;;;5366847;26;20667;-87
2024/04/10 08:54:01;;;;;;;4.00;1.50;;;12.50;99.90;;;;;;5377311;26;20982;-88
2024/04/10 08:56:30;;;;;;;3.77;1.10;;;12.40;99.90;;;;;;5371058;26;20637;-89
2024/04/10 08:58:56;;;;;;;4.67;1.70;;;12.50;99.90;;;;;;5378954;26;20562;-88
2024/04/10 09:01:28;;;;;;;6.87;1.43;;;12.50;99.90;;;;;;5370019;26;20244;-87
2024/04/10 09:03:54;;;;;;;4.97;1.80;;;12.40;99.90;;;;;;5368976;26;20755;-87
2024/04/10 09:06:23;;;;;;;4.03;1.43;;;12.40;99.90;;;;;;5365611;26;20244;-87
2024/04/10 09:08:59;;;;;;;6.93;1.60;;;12.30;99.90;;;;;;5369823;26;20240;-89
2024/04/10 09:11:28;;;;;;;7.03;1.60;;;12.40;99.90;;;;;;5374993;26;20247;-87
2024/04/10 09:14:01;;;;;;;5.73;1.60;;;12.40;99.90;;;;;;5374503;26;20248;-88
2024/04/10 09:16:30;;;;;;;5.07;1.60;;;12.60;99.90;;;;;;5369506;26;20302;-88
2024/04/10 09:18:56;;;;;;;3.20;1.60;;;12.70;99.90;;;;;;5369691;26;20707;-87
2024/04/10 09:21:24;;;;;;;5.40;1.60;;;12.70;99.90;;;;;;5374405;26;20274;-88
2024/04/10 09:24:03;;;;;;;6.27;1.77;;;12.60;99.90;;;;;;5370242;26;20256;-88
2024/04/10 09:26:32;;;;;;;3.20;1.47;;;12.70;99.90;;;;;;5366737;26;20611;-88
2024/04/10 09:29:03;;;;;;;5.33;1.77;;;12.70;99.90;;;;;;5366226;26;20303;-87
2024/04/10 09:31:33;;;;;;;3.70;1.50;;;12.70;99.90;;;;;;5371410;26;20248;-88
2024/04/10 09:33:59;;;;;;;7.23;1.80;;;12.70;99.90;;;;;;5380618;26;20249;-88
2024/04/10 09:36:29;;;;;;;5.83;1.53;;;12.70;99.90;;;;;;5377158;26;20303;-88
2024/04/10 09:38:58;;;;;;;2.77;1.70;;;12.70;99.90;;;;;;5363370;26;20276;-88
2024/04/10 09:41:31;;;;;;;5.40;1.67;;;12.80;99.90;;;;;;5374801;26;20240;-87
2024/04/10 09:43:58;;;;;;;5.90;1.63;;;12.70;99.90;;;;;;5376753;26;20245;-88
2024/04/10 09:46:35;;;;;;;5.90;1.83;;;12.70;99.90;;;;;;5378359;26;20304;-88
2024/04/10 09:49:09;;;;;;;2.37;1.00;;;12.70;99.90;;;;;;5364579;26;20619;-88
2024/04/10 09:51:40;;;;;;;5.30;1.57;;;12.80;99.90;;;;;;5374663;26;20660;-89
2024/04/10 09:54:07;;;;;;;4.50;1.30;;;12.90;99.90;;;;;;5381290;26;20244;-88
2024/04/10 09:56:39;;;;;;;3.93;1.43;;;13.10;99.90;;;;;;5377153;26;20767;-88
2024/04/10 09:59:08;;;;;;;3.87;1.37;;;13.20;99.90;;;;;;5374492;26;20774;-88
2024/04/10 10:01:37;;;;;;;4.60;1.53;;;13.10;99.90;;;;;;5375308;26;20298;-88
2024/04/10 10:04:02;;;;;;;3.60;1.50;;;13.10;99.90;;;;;;5371473;26;20240;-88
2024/04/10 10:06:34;;;;;;;2.83;1.30;;;12.90;99.90;;;;;;5370136;26;20357;-88
2024/04/10 10:09:00;;;;;;;1.97;1.17;;;13.00;99.90;;;;;;5373187;26;20241;-88
2024/04/10 10:11:29;;;;;;;4.90;1.37;;;13.00;99.90;;;;;;5368556;26;20305;-87
2024/04/10 10:14:02;;;;;;;1.97;1.23;;;13.00;99.90;;;;;;5364930;26;20249;-88
2024/04/10 10:16:32;;;;;;;3.80;1.00;;;13.10;99.90;;;;;;5370907;26;20307;-88
2024/04/10 10:18:59;;;;;;;3.43;1.57;;;13.00;99.90;;;;;;5367638;26;20354;-88
2024/04/10 10:21:29;;;;;;;4.27;1.20;;;13.10;99.90;;;;;;5375396;26;20284;-87
2024/04/10 10:23:56;;;;;;;3.73;1.80;;;13.00;99.90;;;;;;5380607;26;20244;-88
2024/04/10 10:26:25;;;;;;;3.67;1.23;;;13.00;99.90;;;;;;5372912;26;20339;-88
2024/04/10 10:29:03;;;;;;;3.50;1.40;;;13.00;99.90;;;;;;5373123;26;20248;-88
2024/04/10 10:31:31;;;;;;;3.20;1.33;;;13.00;99.90;;;;;;5378291;26;20746;-88
2024/04/10 10:34:01;;;;;;;4.77;1.70;;;13.00;99.90;;;;;;5372538;26;20248;-88
2024/04/10 10:36:34;;;;;;;4.07;1.40;;;12.90;99.90;;;;;;5367113;26;20700;-88
2024/04/10 10:39:01;;;;;;;6.00;1.60;;;12.90;99.90;;;;;;5372843;26;20298;-88
2024/04/10 10:41:29;;;;;;;3.37;1.40;;;13.00;99.90;;;;;;5373141;26;20248;-88
2024/04/10 10:43:57;;;;;;;4.50;1.33;;;13.10;99.90;;;;;;5371973;26;20248;-89
2024/04/10 10:46:29;;;;;;;3.90;1.30;;;13.10;99.90;;;;;;5375228;26;20256;-88
2024/04/10 10:48:55;;;;;;;5.17;1.73;;;13.20;99.90;;;;;;5364342;26;20804;-88
2024/04/10 10:51:24;;;;;;;3.07;1.30;;;13.40;99.90;;;;;;5366635;26;20751;-88
2024/04/10 10:53:50;;;;;;;4.17;1.13;;;13.50;99.90;;;;;;5371746;26;20371;-89
2024/04/10 10:56:26;;;;;;;4.93;1.50;;;13.60;99.90;;;;;;5376429;26;20264;-88
2024/04/10 10:58:51;;;;;;;7.00;1.20;;;13.60;99.90;;;;;;5371549;26;20271;-88
2024/04/10 11:01:21;;;;;;;4.03;1.20;;;13.50;99.90;;;;;;5369556;26;20243;-88
2024/04/10 11:03:49;;;;;;;3.27;1.27;;;13.60;99.90;;;;;;5369150;26;20248;-88
2024/04/10 11:06:18;;;;;;;2.43;1.10;;;13.70;99.90;;;;;;5375199;26;20622;-88
2024/04/10 11:08:44;;;;;;;2.17;1.37;;;13.70;99.90;;;;;;5367861;26;20290;-88
2024/04/10 11:11:16;;;;;;;2.00;1.20;;;13.70;99.90;;;;;;5368601;26;20872;-89
2024/04/10 11:13:49;;;;;;;3.57;1.50;;;13.70;99.90;;;;;;5369919;26;20244;-88
2024/04/10 11:16:28;;;;;;;5.80;1.43;;;13.80;99.90;;;;;;5379022;26;20335;-88
2024/04/10 11:18:57;;;;;;;4.63;1.40;;;13.90;99.90;;;;;;5359609;26;20288;-89
2024/04/10 11:21:26;;;;;;;6.17;1.10;;;14.00;99.90;;;;;;5379674;26;20256;-87
2024/04/10 11:23:52;;;;;;;3.77;1.37;;;13.90;99.90;;;;;;5372183;26;20716;-88
2024/04/10 11:26:20;;;;;;;4.33;1.47;;;14.00;99.90;;;;;;5370029;26;20303;-88
2024/04/10 11:28:53;;;;;;;4.50;1.33;;;14.00;99.90;;;;;;5370760;26;20544;-89
2024/04/10 11:31:21;;;;;;;3.87;1.10;;;14.10;99.90;;;;;;5364971;26;20637;-89
2024/04/10 11:33:47;;;;;;;4.67;1.13;;;14.10;99.90;;;;;;5368429;26;20812;-89
2024/04/10 11:36:19;;;;;;;3.00;1.20;;;14.00;99.90;;;;;;5371871;26;20397;-88
2024/04/10 11:38:48;;;;;;;2.77;1.20;;;14.00;99.90;;;;;;5373749;26;20303;-88
2024/04/10 11:41:17;;;;;;;1.63;0.80;;;14.20;99.90;;;;;;5372937;26;20743;-89
2024/04/10 11:43:43;;;;;;;2.50;1.03;;;14.20;99.90;;;;;;5373561;26;20252;-88
2024/04/10 11:46:12;;;;;;;4.10;1.30;;;14.30;99.90;;;;;;5369557;26;20420;-88
2024/04/10 11:48:38;;;;;;;4.30;1.27;;;14.50;99.90;;;;;;5371395;26;20632;-89
2024/04/10 11:51:07;;;;;;;3.73;1.20;;;14.80;99.90;;;;;;5370213;26;20278;-88
2024/04/10 11:53:37;;;;;;;3.53;1.50;;;14.80;99.90;;;;;;5365225;26;20864;-89
2024/04/10 11:56:06;;;;;;;4.17;1.33;;;14.90;99.90;;;;;;5368084;26;20252;-88
2024/04/10 11:58:32;;;;;;;2.13;1.20;;;14.80;99.90;;;;;;5373878;26;20253;-89
2024/04/10 12:01:00;;;;;;;3.67;1.30;;;14.70;99.90;;;;;;5374567;26;20291;-89
2024/04/10 12:03:26;;;;;;;2.87;1.30;;;14.70;99.90;;;;;;5367337;26;20928;-89
2024/04/10 12:05:56;;;;;;;3.87;1.50;;;14.60;99.90;;;;;;5378588;26;20248;-89
2024/04/10 12:08:22;;;;;;;4.70;1.70;;;14.80;99.90;;;;;;5375712;26;20245;-88
2024/04/10 12:10:53;;;;;;;4.90;1.70;;;14.80;99.90;;;;;;5366338;26;20248;-88
2024/04/10 12:13:19;;;;;;;4.30;1.63;;;15.00;99.90;;;;;;5374414;26;20633;-89
2024/04/10 12:15:47;;;;;;;6.60;2.10;;;15.20;99.90;;;;;;5353599;26;20247;-89
2024/04/10 12:18:13;;;;;;;7.00;2.13;;;15.40;99.90;;;;;;5375160;26;20244;-88
2024/04/10 12:20:42;;;;;;;6.07;1.90;;;15.30;99.90;;;;;;5367905;26;20751;-89
2024/04/10 12:23:08;;;;;;;3.47;1.60;;;15.10;99.90;;;;;;5375751;26;20297;-89
2024/04/10 12:25:36;;;;;;;6.83;1.80;;;14.80;99.90;;;;;;5374683;26;20746;-87
2024/04/10 12:28:05;;;;;;;4.53;1.70;;;14.70;99.90;;;;;;5375165;26;20248;-88
2024/04/10 12:30:34;;;;;;;4.67;1.90;;;14.80;99.90;;;;;;5374084;26;20348;-89
2024/04/10 12:33:00;;;;;;;3.53;1.60;;;15.00;99.90;;;;;;5374985;26;20283;-88
2024/04/10 12:38:12;;;;;;;3.10;1.30;;;15.30;99.90;;;;;;5380396;26;20985;-89
2024/04/10 12:40:41;;;;;;;4.80;1.37;;;15.30;99.90;;;;;;5377825;26;20279;-88
2024/04/10 12:43:12;;;;;;;2.57;1.50;;;15.40;99.90;;;;;;5373784;26;20249;-89
2024/04/10 12:45:38;;;;;;;4.33;2.10;;;15.50;99.90;;;;;;5357620;26;20366;-89
2024/04/10 12:48:09;;;;;;;3.20;1.23;;;15.30;99.90;;;;;;5368437;26;20261;-88
2024/04/10 12:50:36;;;;;;;5.83;1.20;;;15.50;99.90;;;;;;5360580;26;20311;-88
2024/04/10 12:53:07;;;;;;;5.57;1.50;;;15.50;99.90;;;;;;5374746;26;20280;-89
2024/04/10 12:55:33;;;;;;;2.77;1.00;;;15.50;99.90;;;;;;5372999;26;22034;-88
2024/04/10 12:58:01;;;;;;;4.00;1.10;;;15.60;99.90;;;;;;5366119;26;20775;-89
2024/04/10 13:00:30;;;;;;;4.03;1.00;;;15.60;99.90;;;;;;5388083;26;20245;-89
2024/04/10 13:02:59;;;;;;;2.10;1.20;;;15.50;99.90;;;;;;5366894;26;20844;-88